< < Back
Terminal Aerodrome Forecast


Current Version              Previous Versions:   1  2  3  4  5  6  7  8  9  

Terminal Aerodrome Forecast

407
FTUS42 KCHS 041732
TAFSAV
TAF
KSAV 041732Z 0418/0518 30011G17KT P6SM FEW060
     FM050000 27006KT P6SM SKC
     FM051500 30011G16KT P6SM SCT060=

Latest METAR

479
SAUS80 KWBC 050100 CCA
MTRSAV
METAR KSAV 050053Z 29006KT 10SM FEW130 21/09 A2967 RMK AO2 SLP045
T02060089


USA.gov is the U.S. government's official web portal to all federal, state and local government web resources and services.